createdAt,value
2022-08-03T00:33:06.411Z,18.5
2022-08-03T00:53:06.249Z,18.51
2022-08-03T01:13:06.356Z,18.51
2022-08-03T01:53:06.329Z,18.5
2022-08-03T02:13:06.294Z,18.5
2022-08-03T02:53:06.243Z,18.5
2022-08-03T03:33:06.200Z,18.5
2022-08-03T04:53:06.124Z,18.5
2022-08-03T05:13:05.338Z,18.5
2022-08-03T05:33:06.086Z,18.51
2022-08-03T05:53:06.049Z,18.5
2022-08-03T06:33:05.254Z,18.51
2022-08-03T06:53:06.005Z,18.5
2022-08-03T07:13:05.974Z,18.51
2022-08-03T07:53:05.400Z,18.5
2022-08-03T08:33:05.356Z,18.5
2022-08-03T09:33:05.813Z,18.49
2022-08-03T10:33:04.977Z,18.48
2022-08-03T12:33:05.598Z,18.46
2022-08-03T16:13:05.215Z,18.39
2022-08-03T16:33:05.349Z,18.38
2022-08-03T16:53:05.321Z,18.37
2022-08-03T17:13:05.271Z,18.37
2022-08-03T17:33:05.252Z,18.36
2022-08-03T17:53:06.973Z,18.36
2022-08-03T18:13:10.375Z,18.36
2022-08-03T18:34:15.823Z,18.36
2022-08-03T18:53:05.021Z,18.35
2022-08-03T19:13:05.137Z,18.35
2022-08-03T19:33:05.151Z,18.35
2022-08-03T19:53:04.345Z,18.35
2022-08-03T20:13:05.061Z,18.35
2022-08-03T20:53:05.978Z,18.34
2022-08-03T21:13:15.732Z,18.34
2022-08-03T21:33:04.965Z,18.33
2022-08-03T21:53:04.949Z,18.33
2022-08-03T22:13:04.929Z,18.33
2022-08-03T22:33:04.915Z,18.33
2022-08-03T22:53:04.878Z,18.32
2022-08-03T23:13:04.336Z,18.32
2022-08-03T23:33:04.837Z,18.33
2022-08-03T23:53:04.044Z,18.33
